Time;durP1;ratioP1;P1;durP2;ratioP2;P2;SDS_P1;SDS_P2;PMS_P1;PMS_P2;Temp;Humidity;BMP_temperature;BMP_pressure;BME280_temperature;BME280_humidity;BME280_pressure;Samples;Min_cycle;Max_cycle;Signal;HPM_P1;HPM_P2
2022/10/31 00:01:18;;;;;;;217.27;128.80;;;;;;;;;;5022268;28;20573;-73
2022/10/31 00:03:44;;;;;;;245.33;144.23;;;;;;;;;;5008918;28;20626;-73
2022/10/31 00:06:10;;;;;;;260.53;146.90;;;;;;;;;;4990256;28;21172;-73
2022/10/31 00:08:36;;;;;;;260.87;149.87;;;;;;;;;;4993543;28;20259;-74
2022/10/31 00:11:02;;;;;;;275.23;155.63;;;;;;;;;;4995482;28;20792;-73
2022/10/31 00:13:28;;;;;;;258.13;145.60;;;;;;;;;;4996306;28;20220;-73
2022/10/31 00:15:54;;;;;;;259.70;146.90;;;;;;;;;;5008376;28;20208;-73
2022/10/31 00:18:20;;;;;;;284.63;157.47;;;;;;;;;;4993391;28;21706;-74
2022/10/31 00:20:46;;;;;;;293.53;163.00;;;;;;;;;;5017231;28;20522;-73
2022/10/31 00:23:12;;;;;;;288.50;160.90;;;;;;;;;;5016266;28;20226;-73
2022/10/31 00:25:39;;;;;;;338.37;184.43;;;;;;;;;;5014461;28;20218;-73
2022/10/31 00:28:06;;;;;;;311.77;160.10;;;;;;;;;;5011882;28;20243;-73
2022/10/31 00:30:32;;;;;;;356.30;173.00;;;;;;;;;;5013694;28;20234;-73
2022/10/31 00:32:58;;;;;;;344.63;166.27;;;;;;;;;;5026813;28;20191;-74
2022/10/31 00:35:24;;;;;;;359.97;172.80;;;;;;;;;;5021350;28;20222;-74
2022/10/31 00:37:50;;;;;;;383.63;184.73;;;;;;;;;;5015816;28;20219;-73
2022/10/31 00:40:16;;;;;;;353.73;169.67;;;;;;;;;;5015450;28;20727;-73
2022/10/31 00:42:42;;;;;;;386.90;189.63;;;;;;;;;;5012930;28;20375;-73
2022/10/31 00:45:09;;;;;;;400.13;196.53;;;;;;;;;;5010096;28;20183;-74
2022/10/31 00:47:35;;;;;;;313.47;147.40;;;;;;;;;;5023821;28;20301;-73
2022/10/31 00:50:01;;;;;;;335.07;156.37;;;;;;;;;;5022590;28;20299;-73
2022/10/31 00:52:27;;;;;;;411.67;203.33;;;;;;;;;;5007840;28;20238;-73
2022/10/31 00:54:53;;;;;;;367.33;177.23;;;;;;;;;;5028905;28;20866;-74
2022/10/31 00:57:19;;;;;;;346.67;164.03;;;;;;;;;;5018296;28;20223;-75
2022/10/31 00:59:45;;;;;;;346.67;164.37;;;;;;;;;;5022411;28;20353;-74
2022/10/31 01:02:11;;;;;;;353.60;167.90;;;;;;;;;;5025356;28;20684;-75
2022/10/31 01:04:36;;;;;;;359.60;185.73;;;;;;;;;;5018085;28;20310;-75
2022/10/31 01:07:02;;;;;;;297.50;158.90;;;;;;;;;;5014331;28;20212;-74
2022/10/31 01:09:28;;;;;;;326.47;168.63;;;;;;;;;;5025599;28;20230;-74
2022/10/31 01:11:54;;;;;;;346.07;178.27;;;;;;;;;;5009905;28;20590;-74
2022/10/31 01:14:20;;;;;;;354.23;182.40;;;;;;;;;;5012480;28;20595;-74
2022/10/31 01:16:46;;;;;;;281.20;145.73;;;;;;;;;;5018059;28;20314;-74
2022/10/31 01:19:12;;;;;;;301.73;159.77;;;;;;;;;;5013649;28;20289;-74
2022/10/31 01:21:38;;;;;;;315.80;165.63;;;;;;;;;;5022215;28;20274;-74
2022/10/31 01:24:04;;;;;;;315.20;164.87;;;;;;;;;;5032769;28;20176;-74
2022/10/31 01:26:31;;;;;;;343.93;174.63;;;;;;;;;;5017667;28;20208;-75
2022/10/31 01:28:59;;;;;;;325.33;166.50;;;;;;;;;;5009244;28;20232;-75
2022/10/31 01:31:26;;;;;;;323.33;168.77;;;;;;;;;;5016926;28;20215;-75
2022/10/31 01:33:52;;;;;;;409.67;217.63;;;;;;;;;;5023344;28;20226;-74
2022/10/31 01:36:22;;;;;;;327.37;171.40;;;;;;;;;;5017245;28;20218;-74
2022/10/31 01:38:49;;;;;;;323.87;167.43;;;;;;;;;;4999269;28;20849;-74
2022/10/31 01:41:17;;;;;;;325.43;165.00;;;;;;;;;;4989283;28;20321;-75
2022/10/31 01:43:56;;;;;;;365.57;192.00;;;;;;;;;;4997062;28;20323;-74
2022/10/31 01:46:25;;;;;;;299.90;152.67;;;;;;;;;;5003177;28;20270;-74
2022/10/31 01:48:51;;;;;;;319.03;162.70;;;;;;;;;;4998198;28;20251;-74
2022/10/31 01:51:19;;;;;;;342.30;178.33;;;;;;;;;;4991962;28;20192;-74
2022/10/31 01:53:46;;;;;;;364.77;195.30;;;;;;;;;;5018334;28;21322;-75
2022/10/31 01:56:13;;;;;;;301.67;161.60;;;;;;;;;;4996850;28;20698;-75
2022/10/31 01:58:39;;;;;;;300.75;157.60;;;;;;;;;;5001645;28;20216;-74
2022/10/31 02:01:05;;;;;;;283.33;143.90;;;;;;;;;;4999708;28;20214;-74
2022/10/31 02:03:32;;;;;;;305.23;160.37;;;;;;;;;;5004897;28;20160;-75
2022/10/31 02:05:58;;;;;;;355.20;186.53;;;;;;;;;;4982166;28;20201;-74
2022/10/31 02:08:29;;;;;;;348.93;179.73;;;;;;;;;;4996344;28;20291;-74
2022/10/31 02:10:56;;;;;;;323.90;165.67;;;;;;;;;;4989736;28;20212;-75
2022/10/31 02:13:22;;;;;;;327.97;168.17;;;;;;;;;;4991733;28;20247;-74
2022/10/31 02:15:51;;;;;;;355.97;184.77;;;;;;;;;;4992395;28;20217;-74
2022/10/31 02:18:17;;;;;;;307.83;153.27;;;;;;;;;;4989709;28;20192;-75
2022/10/31 02:20:49;;;;;;;348.37;178.73;;;;;;;;;;4998623;28;20221;-74
2022/10/31 02:23:30;;;;;;;296.83;145.83;;;;;;;;;;4994254;28;20217;-74
2022/10/31 02:26:02;;;;;;;348.27;177.27;;;;;;;;;;4996754;28;20306;-75
2022/10/31 02:28:46;;;;;;;319.37;163.57;;;;;;;;;;4992219;28;20220;-75
2022/10/31 02:31:18;;;;;;;278.30;138.67;;;;;;;;;;4996209;28;20227;-74
2022/10/31 02:34:04;;;;;;;274.40;141.57;;;;;;;;;;5018541;28;20208;-74
2022/10/31 02:36:39;;;;;;;322.57;166.80;;;;;;;;;;5011565;28;20211;-75
2022/10/31 02:39:14;;;;;;;337.17;174.90;;;;;;;;;;5016640;28;20676;-74
2022/10/31 02:41:53;;;;;;;304.43;153.17;;;;;;;;;;5009816;28;20583;-74
2022/10/31 02:44:23;;;;;;;289.40;151.47;;;;;;;;;;5006202;28;20310;-75
2022/10/31 02:46:50;;;;;;;347.67;182.57;;;;;;;;;;4995051;28;20600;-74
2022/10/31 02:49:22;;;;;;;305.93;159.50;;;;;;;;;;4984881;28;20632;-74
2022/10/31 02:51:48;;;;;;;342.70;175.67;;;;;;;;;;5006831;28;22165;-74
2022/10/31 02:54:23;;;;;;;345.13;182.10;;;;;;;;;;4989742;28;20192;-74
2022/10/31 02:56:49;;;;;;;318.93;165.60;;;;;;;;;;4992780;28;20318;-74
2022/10/31 02:59:16;;;;;;;304.17;154.83;;;;;;;;;;5013980;28;20254;-74
2022/10/31 03:01:53;;;;;;;310.07;161.07;;;;;;;;;;5031817;28;20207;-74
2022/10/31 03:04:19;;;;;;;297.23;155.07;;;;;;;;;;5023814;28;20595;-74
2022/10/31 03:06:48;;;;;;;426.53;232.73;;;;;;;;;;5015399;28;20596;-75
2022/10/31 03:09:23;;;;;;;271.27;137.20;;;;;;;;;;5035209;28;20211;-75
2022/10/31 03:11:58;;;;;;;309.90;161.50;;;;;;;;;;5020086;28;20246;-75
2022/10/31 03:14:28;;;;;;;319.27;171.33;;;;;;;;;;5008819;28;20687;-74
2022/10/31 03:16:56;;;;;;;327.27;170.67;;;;;;;;;;5008369;28;20219;-75
2022/10/31 03:19:22;;;;;;;278.17;142.70;;;;;;;;;;5020753;28;20241;-74
2022/10/31 03:21:51;;;;;;;318.67;164.83;;;;;;;;;;5010508;28;20295;-74
2022/10/31 03:24:19;;;;;;;310.87;160.57;;;;;;;;;;4991360;28;20188;-74
2022/10/31 03:26:47;;;;;;;305.70;157.47;;;;;;;;;;5000695;28;20712;-74
2022/10/31 03:29:15;;;;;;;259.00;134.70;;;;;;;;;;5013786;28;20580;-74
2022/10/31 03:31:50;;;;;;;303.30;160.23;;;;;;;;;;5006962;28;20223;-74
2022/10/31 03:34:17;;;;;;;296.10;155.70;;;;;;;;;;5000655;28;20238;-74
2022/10/31 03:36:45;;;;;;;343.77;180.73;;;;;;;;;;5017568;28;20592;-75
2022/10/31 03:39:16;;;;;;;300.83;155.63;;;;;;;;;;5020883;28;20190;-74
2022/10/31 03:41:43;;;;;;;317.67;164.23;;;;;;;;;;4997243;28;20250;-74
2022/10/31 03:44:12;;;;;;;314.23;160.93;;;;;;;;;;5003821;28;20226;-74
2022/10/31 03:46:39;;;;;;;323.73;166.07;;;;;;;;;;5009422;28;20247;-74
2022/10/31 03:49:04;;;;;;;312.20;154.43;;;;;;;;;;5003648;28;20368;-75
2022/10/31 03:51:37;;;;;;;335.63;173.37;;;;;;;;;;4993749;28;20275;-74
2022/10/31 03:54:07;;;;;;;341.80;177.13;;;;;;;;;;5002904;28;20191;-74
2022/10/31 03:56:39;;;;;;;316.27;160.03;;;;;;;;;;5012107;28;21234;-74
2022/10/31 03:59:11;;;;;;;311.23;158.50;;;;;;;;;;5011341;28;20268;-74
2022/10/31 04:01:39;;;;;;;318.10;161.73;;;;;;;;;;5017855;28;20204;-74
2022/10/31 04:04:05;;;;;;;339.77;173.73;;;;;;;;;;5018318;28;20265;-75
2022/10/31 04:06:32;;;;;;;311.27;157.80;;;;;;;;;;5008655;28;20195;-74
2022/10/31 04:09:01;;;;;;;309.57;159.87;;;;;;;;;;5012326;28;20200;-74
2022/10/31 04:11:30;;;;;;;364.50;187.23;;;;;;;;;;5005468;28;20245;-74
2022/10/31 04:13:57;;;;;;;333.33;174.13;;;;;;;;;;5014727;28;20223;-74
2022/10/31 04:16:23;;;;;;;324.23;167.23;;;;;;;;;;5014991;28;20227;-74
2022/10/31 04:18:49;;;;;;;311.10;160.17;;;;;;;;;;5018682;28;20231;-74
2022/10/31 04:21:16;;;;;;;322.63;166.37;;;;;;;;;;5013102;28;20278;-74
2022/10/31 04:23:42;;;;;;;304.63;157.70;;;;;;;;;;5013517;28;20233;-74
2022/10/31 04:26:10;;;;;;;335.90;173.30;;;;;;;;;;5024027;28;20778;-75
2022/10/31 04:28:36;;;;;;;332.20;173.73;;;;;;;;;;5008710;28;20219;-75
2022/10/31 04:31:02;;;;;;;289.87;150.17;;;;;;;;;;5016809;28;20273;-75
2022/10/31 04:33:28;;;;;;;291.97;149.60;;;;;;;;;;5014334;28;20233;-74
2022/10/31 04:35:54;;;;;;;294.90;152.60;;;;;;;;;;5017008;28;20188;-74
2022/10/31 04:38:20;;;;;;;318.53;165.80;;;;;;;;;;5008542;28;20893;-75
2022/10/31 04:40:46;;;;;;;310.23;162.30;;;;;;;;;;5009980;28;20216;-74
2022/10/31 04:43:12;;;;;;;292.80;151.70;;;;;;;;;;5028383;28;20231;-75
2022/10/31 04:45:38;;;;;;;307.80;160.17;;;;;;;;;;5022777;28;20936;-75
2022/10/31 04:48:04;;;;;;;265.00;138.03;;;;;;;;;;5013151;28;20232;-74
2022/10/31 04:50:30;;;;;;;309.57;157.20;;;;;;;;;;5022208;28;20266;-74
2022/10/31 04:52:56;;;;;;;346.77;176.27;;;;;;;;;;5017186;28;20311;-74
2022/10/31 04:55:22;;;;;;;348.87;177.40;;;;;;;;;;5024996;28;20902;-74
2022/10/31 04:57:48;;;;;;;350.47;173.17;;;;;;;;;;5017080;28;20230;-74
2022/10/31 05:00:15;;;;;;;323.43;160.53;;;;;;;;;;5016944;28;20185;-74
2022/10/31 05:02:45;;;;;;;318.73;159.30;;;;;;;;;;5007236;28;20243;-74
2022/10/31 05:05:11;;;;;;;342.47;176.43;;;;;;;;;;4998807;28;20219;-74
2022/10/31 05:07:41;;;;;;;358.17;184.83;;;;;;;;;;4984345;28;20224;-75
2022/10/31 05:10:09;;;;;;;309.30;156.33;;;;;;;;;;5015875;28;20360;-75
2022/10/31 05:12:35;;;;;;;359.17;186.07;;;;;;;;;;5019492;28;20427;-74
2022/10/31 05:15:01;;;;;;;294.80;151.07;;;;;;;;;;5018969;28;20191;-74
2022/10/31 05:17:27;;;;;;;364.20;187.57;;;;;;;;;;5012322;28;20304;-75
2022/10/31 05:19:53;;;;;;;315.70;161.13;;;;;;;;;;5013463;28;20227;-74
2022/10/31 05:22:19;;;;;;;342.17;178.13;;;;;;;;;;5017979;28;20269;-74
2022/10/31 05:24:45;;;;;;;275.27;141.60;;;;;;;;;;5016151;28;20753;-74
2022/10/31 05:27:11;;;;;;;313.63;161.10;;;;;;;;;;5016897;28;20786;-74
2022/10/31 05:29:36;;;;;;;314.77;159.40;;;;;;;;;;5016468;28;20703;-75
2022/10/31 05:32:02;;;;;;;327.43;168.37;;;;;;;;;;5014993;28;20214;-74
2022/10/31 05:34:28;;;;;;;327.73;168.80;;;;;;;;;;5010281;28;20208;-74
2022/10/31 05:36:54;;;;;;;340.63;176.17;;;;;;;;;;5012704;28;20440;-74
2022/10/31 05:39:20;;;;;;;309.60;159.00;;;;;;;;;;5010450;28;20195;-74
2022/10/31 05:41:46;;;;;;;303.97;157.50;;;;;;;;;;5014568;28;20219;-74
2022/10/31 05:44:12;;;;;;;313.77;161.33;;;;;;;;;;5000368;28;20247;-74
2022/10/31 05:46:38;;;;;;;313.87;155.93;;;;;;;;;;5014943;28;20825;-74
2022/10/31 05:49:04;;;;;;;340.87;172.10;;;;;;;;;;5018620;28;20227;-74
2022/10/31 05:51:30;;;;;;;300.67;146.87;;;;;;;;;;5024591;28;20270;-74
2022/10/31 05:53:56;;;;;;;351.17;176.33;;;;;;;;;;5015999;28;20473;-74
2022/10/31 05:56:21;;;;;;;332.27;160.50;;;;;;;;;;5009604;28;21583;-74
2022/10/31 05:58:47;;;;;;;377.63;185.60;;;;;;;;;;5015337;28;21495;-74
2022/10/31 06:01:14;;;;;;;359.90;178.40;;;;;;;;;;5016062;28;20218;-79
2022/10/31 06:03:39;;;;;;;379.20;191.27;;;;;;;;;;5015641;28;20184;-77
2022/10/31 06:06:06;;;;;;;354.33;170.93;;;;;;;;;;5020915;28;20672;-76
2022/10/31 06:08:31;;;;;;;340.90;163.30;;;;;;;;;;5006508;28;20286;-78
2022/10/31 06:10:57;;;;;;;333.43;158.90;;;;;;;;;;5021966;28;20310;-77
2022/10/31 06:13:23;;;;;;;332.10;153.80;;;;;;;;;;5017334;28;20201;-78
2022/10/31 06:15:49;;;;;;;353.10;166.17;;;;;;;;;;5006640;28;20205;-80
2022/10/31 06:18:15;;;;;;;341.57;164.30;;;;;;;;;;5000028;28;20246;-77
2022/10/31 06:20:41;;;;;;;310.43;145.80;;;;;;;;;;5005059;28;20235;-78
2022/10/31 06:23:07;;;;;;;347.90;171.30;;;;;;;;;;5001218;28;20216;-72
2022/10/31 06:25:33;;;;;;;348.63;168.07;;;;;;;;;;4995978;28;20504;-73
2022/10/31 06:27:59;;;;;;;360.30;180.57;;;;;;;;;;5001457;28;20232;-78
2022/10/31 06:30:25;;;;;;;378.40;190.47;;;;;;;;;;4994971;28;20215;-78
2022/10/31 06:32:51;;;;;;;347.77;166.13;;;;;;;;;;4967042;28;20185;-77
2022/10/31 06:35:17;;;;;;;340.27;162.47;;;;;;;;;;4993147;28;20220;-78
2022/10/31 06:37:43;;;;;;;311.07;144.07;;;;;;;;;;4998725;28;20219;-76
2022/10/31 06:40:10;;;;;;;360.63;174.10;;;;;;;;;;4992473;28;20208;-77
2022/10/31 06:42:35;;;;;;;349.20;169.20;;;;;;;;;;5003987;28;20181;-78
2022/10/31 06:45:01;;;;;;;350.43;171.00;;;;;;;;;;4999521;28;20188;-76
2022/10/31 06:47:27;;;;;;;380.17;189.43;;;;;;;;;;4990490;28;20558;-75
2022/10/31 06:49:53;;;;;;;385.87;187.07;;;;;;;;;;4986641;28;20232;-79
2022/10/31 06:52:19;;;;;;;318.97;153.20;;;;;;;;;;5012411;28;20262;-76
2022/10/31 06:54:45;;;;;;;386.37;193.17;;;;;;;;;;4994694;28;20226;-79
2022/10/31 06:57:11;;;;;;;315.00;151.73;;;;;;;;;;5030857;28;20612;-75
2022/10/31 06:59:37;;;;;;;374.30;187.57;;;;;;;;;;5018471;28;20462;-76
2022/10/31 07:02:03;;;;;;;333.93;161.17;;;;;;;;;;5020266;28;20238;-76
2022/10/31 07:04:29;;;;;;;377.87;190.60;;;;;;;;;;5012180;28;20219;-78
2022/10/31 07:06:55;;;;;;;399.20;198.63;;;;;;;;;;5001663;28;20220;-78
2022/10/31 07:09:21;;;;;;;373.20;181.67;;;;;;;;;;4989269;28;20860;-78
2022/10/31 07:11:47;;;;;;;383.10;186.23;;;;;;;;;;5006157;28;20228;-75
2022/10/31 07:14:12;;;;;;;334.20;151.90;;;;;;;;;;5014112;28;20208;-75
2022/10/31 07:16:38;;;;;;;344.80;159.77;;;;;;;;;;5010324;28;20212;-75
2022/10/31 07:19:04;;;;;;;378.43;174.80;;;;;;;;;;5008331;28;20220;-73
2022/10/31 07:21:30;;;;;;;369.03;167.97;;;;;;;;;;5002466;28;20192;-74
2022/10/31 07:23:56;;;;;;;337.67;153.33;;;;;;;;;;4991655;28;20189;-75
2022/10/31 07:26:22;;;;;;;396.60;192.87;;;;;;;;;;5005441;28;20230;-70
2022/10/31 07:28:48;;;;;;;439.90;197.77;;;;;;;;;;4992939;28;20220;-67
2022/10/31 07:31:14;;;;;;;379.33;171.43;;;;;;;;;;4989782;28;20224;-68
2022/10/31 07:33:40;;;;;;;355.17;160.57;;;;;;;;;;4995095;28;20186;-68
2022/10/31 07:36:06;;;;;;;355.57;168.27;;;;;;;;;;4991159;28;20204;-67
2022/10/31 07:38:32;;;;;;;322.33;146.47;;;;;;;;;;4996947;28;20216;-69
2022/10/31 07:40:58;;;;;;;355.10;166.70;;;;;;;;;;5016641;28;20715;-66
2022/10/31 07:43:24;;;;;;;347.93;163.30;;;;;;;;;;5022502;28;20930;-66
2022/10/31 07:45:54;;;;;;;327.57;151.80;;;;;;;;;;5027683;28;20725;-67
2022/10/31 07:48:20;;;;;;;384.00;181.40;;;;;;;;;;5019983;28;20171;-67
2022/10/31 07:50:46;;;;;;;364.30;167.07;;;;;;;;;;5023646;28;20223;-76
2022/10/31 07:53:12;;;;;;;311.00;142.83;;;;;;;;;;5031734;28;20218;-79
2022/10/31 07:55:39;;;;;;;331.67;154.47;;;;;;;;;;5033504;28;20208;-77
2022/10/31 07:58:06;;;;;;;413.27;188.93;;;;;;;;;;5029628;28;20609;-78
2022/10/31 08:00:33;;;;;;;333.17;158.60;;;;;;;;;;5015257;28;20181;-76
2022/10/31 08:02:59;;;;;;;325.37;155.80;;;;;;;;;;5010094;28;20191;-72
2022/10/31 08:05:25;;;;;;;370.03;169.87;;;;;;;;;;4995845;28;20224;-73
2022/10/31 08:07:50;;;;;;;365.27;183.70;;;;;;;;;;4997390;28;20251;-73
2022/10/31 08:10:16;;;;;;;328.37;155.97;;;;;;;;;;5016172;28;20216;-73
2022/10/31 08:12:42;;;;;;;350.53;160.03;;;;;;;;;;5034183;28;20652;-73
2022/10/31 08:15:08;;;;;;;380.10;175.20;;;;;;;;;;5037481;28;20217;-73
2022/10/31 08:17:38;;;;;;;360.13;168.77;;;;;;;;;;5034541;28;20772;-79
2022/10/31 08:20:04;;;;;;;380.87;175.27;;;;;;;;;;5015520;28;20223;-77
2022/10/31 08:22:30;;;;;;;402.30;188.47;;;;;;;;;;5003242;28;20214;-75
2022/10/31 08:24:56;;;;;;;383.53;178.33;;;;;;;;;;5025421;28;20207;-77
2022/10/31 08:27:22;;;;;;;318.03;150.17;;;;;;;;;;5020006;28;20199;-78
2022/10/31 08:29:48;;;;;;;368.77;172.33;;;;;;;;;;5021209;28;21012;-78
2022/10/31 08:32:14;;;;;;;324.40;151.50;;;;;;;;;;5013077;28;20685;-78
2022/10/31 08:34:40;;;;;;;385.33;180.40;;;;;;;;;;5026716;28;20214;-78
2022/10/31 08:37:06;;;;;;;352.80;171.83;;;;;;;;;;5026362;28;20220;-78
2022/10/31 08:39:32;;;;;;;360.57;176.80;;;;;;;;;;5009637;28;20204;-78
2022/10/31 08:41:57;;;;;;;344.13;161.87;;;;;;;;;;5015861;28;20196;-78
2022/10/31 08:44:23;;;;;;;394.77;184.50;;;;;;;;;;5012665;28;20212;-78
2022/10/31 08:46:49;;;;;;;375.40;185.67;;;;;;;;;;5006281;28;20307;-78
2022/10/31 08:49:15;;;;;;;349.27;170.53;;;;;;;;;;5001734;28;20219;-78
2022/10/31 08:51:41;;;;;;;414.03;198.30;;;;;;;;;;5021184;28;20189;-78
2022/10/31 08:54:07;;;;;;;353.53;165.53;;;;;;;;;;5017774;28;20180;-78
2022/10/31 08:56:33;;;;;;;371.63;188.00;;;;;;;;;;4998422;28;20420;-78
2022/10/31 08:58:59;;;;;;;377.07;178.47;;;;;;;;;;4983753;28;20230;-78
2022/10/31 09:01:25;;;;;;;348.87;166.03;;;;;;;;;;5000313;28;20220;-78
2022/10/31 09:03:51;;;;;;;395.20;188.47;;;;;;;;;;4997835;28;20231;-79
2022/10/31 09:06:17;;;;;;;395.17;200.70;;;;;;;;;;4986857;28;20965;-76
2022/10/31 09:08:43;;;;;;;368.03;173.30;;;;;;;;;;4989091;28;20286;-76
2022/10/31 09:11:09;;;;;;;370.27;178.23;;;;;;;;;;4997601;28;20211;-77
2022/10/31 09:13:35;;;;;;;392.03;186.77;;;;;;;;;;4998811;28;20222;-76
2022/10/31 09:16:00;;;;;;;389.33;194.90;;;;;;;;;;5015586;28;20235;-76
2022/10/31 09:18:31;;;;;;;364.30;181.07;;;;;;;;;;5021498;28;20195;-76
2022/10/31 09:20:58;;;;;;;332.93;157.30;;;;;;;;;;5024502;28;20225;-76
2022/10/31 09:23:24;;;;;;;345.53;166.23;;;;;;;;;;5020389;28;20569;-77
2022/10/31 09:25:51;;;;;;;376.37;178.83;;;;;;;;;;5008218;28;20228;-76
2022/10/31 09:28:18;;;;;;;364.23;174.57;;;;;;;;;;5002849;28;20363;-76
2022/10/31 09:30:46;;;;;;;408.93;187.30;;;;;;;;;;5010854;28;20317;-74
2022/10/31 09:33:13;;;;;;;331.37;154.77;;;;;;;;;;5027442;28;20246;-75
2022/10/31 09:35:40;;;;;;;395.37;184.27;;;;;;;;;;4984366;28;20229;-73
2022/10/31 09:38:07;;;;;;;379.93;180.13;;;;;;;;;;5002161;28;20286;-73
2022/10/31 09:40:37;;;;;;;318.80;166.27;;;;;;;;;;4991565;28;20240;-71
2022/10/31 09:43:06;;;;;;;310.90;168.17;;;;;;;;;;4988550;28;20212;-72
2022/10/31 09:45:38;;;;;;;299.27;162.40;;;;;;;;;;4998399;28;20181;-74
2022/10/31 09:48:27;;;;;;;285.17;160.97;;;;;;;;;;5012424;28;20180;-74
2022/10/31 09:50:56;;;;;;;279.17;156.13;;;;;;;;;;5032863;28;20255;-75
2022/10/31 09:53:41;;;;;;;296.40;163.43;;;;;;;;;;5023415;28;20702;-74
2022/10/31 09:56:09;;;;;;;289.17;171.57;;;;;;;;;;5011134;28;20231;-74
2022/10/31 09:58:39;;;;;;;308.67;170.33;;;;;;;;;;4984412;28;20223;-73
2022/10/31 10:01:05;;;;;;;353.17;202.13;;;;;;;;;;4988933;28;20216;-75
2022/10/31 10:03:44;;;;;;;284.10;165.90;;;;;;;;;;4971155;28;21244;-75
2022/10/31 10:06:17;;;;;;;284.37;171.80;;;;;;;;;;4983921;28;20229;-74
2022/10/31 10:08:42;;;;;;;322.30;192.63;;;;;;;;;;5013798;28;20274;-74
2022/10/31 10:11:24;;;;;;;285.30;165.95;;;;;;;;;;5014897;28;20212;-74
2022/10/31 10:14:00;;;;;;;285.00;161.98;;;;;;;;;;5019826;28;20703;-71
2022/10/31 10:16:33;;;;;;;305.60;183.77;;;;;;;;;;4999192;28;20220;-74
2022/10/31 10:18:59;;;;;;;262.80;152.57;;;;;;;;;;4993735;28;20281;-75
2022/10/31 10:21:45;;;;;;;231.40;139.27;;;;;;;;;;4998856;28;20851;-74
2022/10/31 10:24:17;;;;;;;275.30;163.70;;;;;;;;;;4992882;28;20200;-74
2022/10/31 10:26:46;;;;;;;320.90;180.02;;;;;;;;;;4985862;28;20224;-74
2022/10/31 10:29:18;;;;;;;321.02;193.95;;;;;;;;;;5016991;28;20329;-73
2022/10/31 10:31:45;;;;;;;246.23;161.25;;;;;;;;;;5022225;28;20758;-73
2022/10/31 10:34:29;;;;;;;232.55;145.90;;;;;;;;;;5012675;28;20729;-73
2022/10/31 10:36:58;;;;;;;221.13;140.27;;;;;;;;;;5025621;28;20273;-74
2022/10/31 10:39:28;;;;;;;317.30;180.30;;;;;;;;;;5001158;28;20307;-73
2022/10/31 10:47:38;;;;;;;249.63;161.18;;;;;;;;;;4983704;28;20215;-73
2022/10/31 10:50:21;;;;;;;278.27;172.37;;;;;;;;;;4985098;28;20314;-73
2022/10/31 10:52:52;;;;;;;359.00;198.73;;;;;;;;;;4984878;28;20270;-69
2022/10/31 10:55:30;;;;;;;296.55;183.38;;;;;;;;;;4972849;28;20248;-71
2022/10/31 10:57:58;;;;;;;236.60;159.17;;;;;;;;;;4996104;28;20771;-73
2022/10/31 11:00:30;;;;;;;318.77;187.43;;;;;;;;;;4995034;28;21022;-71
2022/10/31 11:02:56;;;;;;;256.00;159.85;;;;;;;;;;4997023;28;20208;-70
2022/10/31 11:05:30;;;;;;;258.20;161.43;;;;;;;;;;4996316;28;20243;-70
2022/10/31 11:07:56;;;;;;;237.10;148.60;;;;;;;;;;5009961;28;20219;-71
2022/10/31 11:10:22;;;;;;;243.15;151.75;;;;;;;;;;5007241;28;20685;-71
2022/10/31 11:13:06;;;;;;;261.05;159.60;;;;;;;;;;4995912;28;21882;-71
2022/10/31 11:15:35;;;;;;;268.70;164.75;;;;;;;;;;5004590;28;20192;-69
2022/10/31 11:18:02;;;;;;;253.68;161.18;;;;;;;;;;5002995;28;20285;-71
2022/10/31 11:20:34;;;;;;;253.55;159.90;;;;;;;;;;5007403;28;20361;-71
2022/10/31 11:23:05;;;;;;;235.43;155.70;;;;;;;;;;5010454;28;20223;-70
2022/10/31 11:25:31;;;;;;;269.13;175.82;;;;;;;;;;5010747;28;20232;-70
2022/10/31 11:28:00;;;;;;;252.15;173.40;;;;;;;;;;5004978;28;20307;-70
2022/10/31 11:30:26;;;;;;;293.60;196.77;;;;;;;;;;5041254;28;20200;-71
2022/10/31 11:32:52;;;;;;;279.52;177.50;;;;;;;;;;5018750;28;20216;-70
2022/10/31 11:35:19;;;;;;;284.80;176.05;;;;;;;;;;5012213;28;20205;-71
2022/10/31 11:37:46;;;;;;;282.15;172.82;;;;;;;;;;4983314;28;20233;-70
2022/10/31 11:40:16;;;;;;;352.42;202.82;;;;;;;;;;4979446;28;20271;-69
2022/10/31 11:42:43;;;;;;;399.70;237.60;;;;;;;;;;4991606;28;22271;-71
2022/10/31 11:45:24;;;;;;;430.65;252.23;;;;;;;;;;5008077;28;20836;-69
2022/10/31 11:47:51;;;;;;;309.63;190.45;;;;;;;;;;5017462;28;20218;-69
2022/10/31 11:50:22;;;;;;;307.60;186.70;;;;;;;;;;5014852;28;20574;-71
2022/10/31 11:52:48;;;;;;;351.33;205.93;;;;;;;;;;4993886;28;20215;-69
2022/10/31 11:55:30;;;;;;;347.05;218.18;;;;;;;;;;4980957;28;20359;-69
2022/10/31 11:57:56;;;;;;;323.85;201.95;;;;;;;;;;4989720;28;20222;-69
2022/10/31 12:00:24;;;;;;;326.17;202.50;;;;;;;;;;4996107;28;20181;-69
2022/10/31 12:02:50;;;;;;;314.98;199.57;;;;;;;;;;4992723;28;20299;-70
2022/10/31 12:05:25;;;;;;;304.70;184.20;;;;;;;;;;4991160;28;20226;-70
2022/10/31 12:07:51;;;;;;;310.30;183.80;;;;;;;;;;5002032;28;20781;-70
2022/10/31 12:10:19;;;;;;;310.65;184.40;;;;;;;;;;5011244;28;20219;-68
2022/10/31 12:12:52;;;;;;;355.13;213.35;;;;;;;;;;5002613;28;20231;-69
2022/10/31 12:15:18;;;;;;;324.60;193.40;;;;;;;;;;4989793;28;20318;-68
2022/10/31 12:17:49;;;;;;;336.02;205.02;;;;;;;;;;4982882;28;20728;-70
2022/10/31 12:20:26;;;;;;;373.60;209.38;;;;;;;;;;4985330;28;20215;-68
2022/10/31 12:23:02;;;;;;;404.80;229.35;;;;;;;;;;4984672;28;20269;-68
2022/10/31 12:25:35;;;;;;;424.67;235.90;;;;;;;;;;4977701;28;20216;-70
2022/10/31 12:28:01;;;;;;;352.98;209.70;;;;;;;;;;4989171;28;20358;-69
2022/10/31 12:30:45;;;;;;;346.70;203.30;;;;;;;;;;4994488;28;20676;-69
2022/10/31 12:33:24;;;;;;;348.60;197.25;;;;;;;;;;4992069;28;20868;-69
2022/10/31 12:35:56;;;;;;;354.95;201.57;;;;;;;;;;5017562;28;20207;-68
2022/10/31 12:38:51;;;;;;;338.15;190.45;;;;;;;;;;5024663;28;20215;-70
2022/10/31 12:41:25;;;;;;;358.48;205.05;;;;;;;;;;4977143;28;21070;-69
2022/10/31 12:44:06;;;;;;;412.85;234.52;;;;;;;;;;5012410;28;20223;-70
2022/10/31 12:46:31;;;;;;;371.33;215.82;;;;;;;;;;5001586;28;20531;-68
2022/10/31 12:49:09;;;;;;;404.50;227.35;;;;;;;;;;4990704;28;20223;-70
2022/10/31 12:51:40;;;;;;;378.48;215.48;;;;;;;;;;4989038;28;20299;-69
2022/10/31 12:54:25;;;;;;;410.40;234.48;;;;;;;;;;5000676;28;20208;-69
2022/10/31 12:56:51;;;;;;;398.20;245.45;;;;;;;;;;5011860;28;20260;-68
2022/10/31 12:59:35;;;;;;;392.60;245.70;;;;;;;;;;5008374;28;20212;-69
2022/10/31 13:02:14;;;;;;;375.25;237.20;;;;;;;;;;5002734;28;20247;-70
2022/10/31 13:04:57;;;;;;;397.55;252.00;;;;;;;;;;5016154;28;20361;-70
2022/10/31 13:07:52;;;;;;;385.48;249.50;;;;;;;;;;5014793;28;20583;-69
2022/10/31 13:10:21;;;;;;;372.65;246.85;;;;;;;;;;5016381;28;20217;-70
2022/10/31 13:12:48;;;;;;;427.38;290.25;;;;;;;;;;5029928;28;20269;-69
2022/10/31 13:15:28;;;;;;;393.48;275.27;;;;;;;;;;5023954;28;20241;-70
2022/10/31 13:17:56;;;;;;;385.83;274.08;;;;;;;;;;5009654;28;21543;-70
2022/10/31 13:20:33;;;;;;;428.70;308.25;;;;;;;;;;5008710;28;20215;-69
2022/10/31 13:23:19;;;;;;;433.40;312.70;;;;;;;;;;5006950;28;20246;-70
2022/10/31 13:25:48;;;;;;;455.63;344.25;;;;;;;;;;5003253;28;20215;-69
2022/10/31 13:28:25;;;;;;;399.83;304.55;;;;;;;;;;4999760;28;20212;-69
2022/10/31 13:30:52;;;;;;;397.63;303.30;;;;;;;;;;4997379;28;20220;-69
2022/10/31 13:33:28;;;;;;;391.98;299.50;;;;;;;;;;4998593;28;20189;-70
2022/10/31 13:36:14;;;;;;;420.02;330.35;;;;;;;;;;5025572;28;20943;-69
2022/10/31 13:38:43;;;;;;;405.70;312.83;;;;;;;;;;5025324;28;20211;-70
2022/10/31 13:41:21;;;;;;;407.95;321.08;;;;;;;;;;5032210;28;20261;-70
2022/10/31 13:43:47;;;;;;;363.92;290.50;;;;;;;;;;5023594;28;20233;-70
2022/10/31 13:46:27;;;;;;;427.48;329.00;;;;;;;;;;5020380;28;20239;-69
2022/10/31 13:48:53;;;;;;;408.33;311.13;;;;;;;;;;4997410;28;20219;-69
2022/10/31 13:51:28;;;;;;;391.90;306.00;;;;;;;;;;4994050;28;20185;-69
2022/10/31 13:53:57;;;;;;;405.70;306.83;;;;;;;;;;4994261;28;21641;-70
2022/10/31 13:56:30;;;;;;;414.10;311.63;;;;;;;;;;5008943;28;20223;-69
2022/10/31 13:59:14;;;;;;;361.75;282.55;;;;;;;;;;5002114;28;20216;-70
2022/10/31 14:01:46;;;;;;;387.33;295.23;;;;;;;;;;5013477;28;20201;-70
2022/10/31 14:04:23;;;;;;;368.13;285.33;;;;;;;;;;5000949;28;20267;-70
2022/10/31 14:06:54;;;;;;;409.92;311.38;;;;;;;;;;5008516;28;20420;-70